sensor_id;sensor_type;location;lat;lon;timestamp;P1;durP1;ratioP1;P2;durP2;ratioP2
4355;SDS011;64374;51.482;7.408;2023-04-03T00:01:26;10.73;;;6.43;;
4355;SDS011;64374;51.482;7.408;2023-04-03T00:03:58;7.93;;;5.67;;
4355;SDS011;64374;51.482;7.408;2023-04-03T00:06:27;10.67;;;6.43;;
4355;SDS011;64374;51.482;7.408;2023-04-03T00:08:56;10.63;;;6.67;;
4355;SDS011;64374;51.482;7.408;2023-04-03T00:11:26;11.60;;;6.40;;
4355;SDS011;64374;51.482;7.408;2023-04-03T00:13:55;12.50;;;7.20;;
4355;SDS011;64374;51.482;7.408;2023-04-03T00:16:23;11.97;;;6.97;;
4355;SDS011;64374;51.482;7.408;2023-04-03T00:18:52;8.70;;;6.10;;
4355;SDS011;64374;51.482;7.408;2023-04-03T00:21:22;9.73;;;6.50;;
4355;SDS011;64374;51.482;7.408;2023-04-03T00:23:51;15.23;;;7.80;;
4355;SDS011;64374;51.482;7.408;2023-04-03T00:26:19;7.57;;;5.60;;
4355;SDS011;64374;51.482;7.408;2023-04-03T00:28:48;8.60;;;6.00;;
4355;SDS011;64374;51.482;7.408;2023-04-03T00:31:16;7.57;;;5.80;;
4355;SDS011;64374;51.482;7.408;2023-04-03T00:33:45;8.10;;;6.00;;
4355;SDS011;64374;51.482;7.408;2023-04-03T00:36:14;7.07;;;5.37;;
4355;SDS011;64374;51.482;7.408;2023-04-03T00:38:43;6.03;;;5.00;;
4355;SDS011;64374;51.482;7.408;2023-04-03T00:41:12;8.67;;;4.73;;
4355;SDS011;64374;51.482;7.408;2023-04-03T00:43:40;9.30;;;5.30;;
4355;SDS011;64374;51.482;7.408;2023-04-03T00:46:08;7.93;;;4.90;;
4355;SDS011;64374;51.482;7.408;2023-04-03T00:48:38;8.50;;;4.90;;
4355;SDS011;64374;51.482;7.408;2023-04-03T00:51:09;8.90;;;5.53;;
4355;SDS011;64374;51.482;7.408;2023-04-03T00:53:43;6.53;;;5.00;;
4355;SDS011;64374;51.482;7.408;2023-04-03T00:56:15;17.10;;;5.73;;
4355;SDS011;64374;51.482;7.408;2023-04-03T00:58:50;13.70;;;5.30;;
4355;SDS011;64374;51.482;7.408;2023-04-03T01:01:22;8.00;;;5.47;;
4355;SDS011;64374;51.482;7.408;2023-04-03T01:03:53;5.67;;;4.90;;
4355;SDS011;64374;51.482;7.408;2023-04-03T01:06:24;8.03;;;5.03;;
4355;SDS011;64374;51.482;7.408;2023-04-03T01:09:04;6.73;;;4.80;;
4355;SDS011;64374;51.482;7.408;2023-04-03T01:11:35;15.97;;;5.50;;
4355;SDS011;64374;51.482;7.408;2023-04-03T01:14:03;6.97;;;4.53;;
4355;SDS011;64374;51.482;7.408;2023-04-03T01:16:33;6.67;;;4.07;;
4355;SDS011;64374;51.482;7.408;2023-04-03T01:19:02;6.70;;;4.40;;
4355;SDS011;64374;51.482;7.408;2023-04-03T01:21:49;6.50;;;3.83;;
4355;SDS011;64374;51.482;7.408;2023-04-03T01:24:33;5.97;;;3.83;;
4355;SDS011;64374;51.482;7.408;2023-04-03T01:27:05;5.10;;;3.50;;
4355;SDS011;64374;51.482;7.408;2023-04-03T01:29:36;7.67;;;3.90;;
4355;SDS011;64374;51.482;7.408;2023-04-03T01:32:07;5.43;;;3.50;;
4355;SDS011;64374;51.482;7.408;2023-04-03T01:34:35;4.07;;;3.10;;
4355;SDS011;64374;51.482;7.408;2023-04-03T01:37:04;7.00;;;3.30;;
4355;SDS011;64374;51.482;7.408;2023-04-03T01:39:34;5.40;;;2.70;;
4355;SDS011;64374;51.482;7.408;2023-04-03T01:42:02;4.13;;;2.43;;
4355;SDS011;64374;51.482;7.408;2023-04-03T01:44:36;13.33;;;2.43;;
4355;SDS011;64374;51.482;7.408;2023-04-03T01:47:06;6.73;;;2.10;;
4355;SDS011;64374;51.482;7.408;2023-04-03T01:49:37;7.70;;;2.73;;
4355;SDS011;64374;51.482;7.408;2023-04-03T01:52:05;4.20;;;2.13;;
4355;SDS011;64374;51.482;7.408;2023-04-03T01:54:34;6.73;;;2.40;;
4355;SDS011;64374;51.482;7.408;2023-04-03T01:57:05;5.40;;;2.07;;
4355;SDS011;64374;51.482;7.408;2023-04-03T01:59:34;4.10;;;2.33;;
4355;SDS011;64374;51.482;7.408;2023-04-03T02:02:02;5.67;;;2.57;;
4355;SDS011;64374;51.482;7.408;2023-04-03T02:04:32;4.90;;;2.30;;
4355;SDS011;64374;51.482;7.408;2023-04-03T02:07:00;5.93;;;1.80;;
4355;SDS011;64374;51.482;7.408;2023-04-03T02:09:30;8.87;;;2.37;;
4355;SDS011;64374;51.482;7.408;2023-04-03T02:11:58;3.40;;;1.73;;
4355;SDS011;64374;51.482;7.408;2023-04-03T02:14:28;5.90;;;2.00;;
4355;SDS011;64374;51.482;7.408;2023-04-03T02:16:56;3.70;;;1.70;;
4355;SDS011;64374;51.482;7.408;2023-04-03T02:19:25;3.33;;;2.00;;
4355;SDS011;64374;51.482;7.408;2023-04-03T02:21:55;3.23;;;1.90;;
4355;SDS011;64374;51.482;7.408;2023-04-03T02:24:23;4.73;;;1.90;;
4355;SDS011;64374;51.482;7.408;2023-04-03T02:26:51;5.70;;;1.87;;
4355;SDS011;64374;51.482;7.408;2023-04-03T02:29:20;4.60;;;1.63;;
4355;SDS011;64374;51.482;7.408;2023-04-03T02:31:48;5.77;;;2.13;;
4355;SDS011;64374;51.482;7.408;2023-04-03T02:34:17;3.00;;;1.50;;
4355;SDS011;64374;51.482;7.408;2023-04-03T02:36:46;2.60;;;1.77;;
4355;SDS011;64374;51.482;7.408;2023-04-03T02:39:19;5.37;;;2.00;;
4355;SDS011;64374;51.482;7.408;2023-04-03T02:41:48;4.33;;;2.17;;
4355;SDS011;64374;51.482;7.408;2023-04-03T02:44:22;4.83;;;2.00;;
4355;SDS011;64374;51.482;7.408;2023-04-03T02:46:51;6.03;;;2.27;;
4355;SDS011;64374;51.482;7.408;2023-04-03T02:49:19;6.37;;;1.87;;
4355;SDS011;64374;51.482;7.408;2023-04-03T02:51:48;4.40;;;2.30;;
4355;SDS011;64374;51.482;7.408;2023-04-03T02:54:17;3.90;;;2.17;;
4355;SDS011;64374;51.482;7.408;2023-04-03T02:56:51;2.97;;;1.60;;
4355;SDS011;64374;51.482;7.408;2023-04-03T02:59:19;3.30;;;1.53;;
4355;SDS011;64374;51.482;7.408;2023-04-03T03:01:48;8.87;;;1.70;;
4355;SDS011;64374;51.482;7.408;2023-04-03T03:04:17;7.13;;;1.90;;
4355;SDS011;64374;51.482;7.408;2023-04-03T03:06:45;5.17;;;1.80;;
4355;SDS011;64374;51.482;7.408;2023-04-03T03:09:14;5.23;;;1.47;;
4355;SDS011;64374;51.482;7.408;2023-04-03T03:11:44;7.03;;;1.97;;
4355;SDS011;64374;51.482;7.408;2023-04-03T03:14:12;6.27;;;2.37;;
4355;SDS011;64374;51.482;7.408;2023-04-03T03:16:42;3.83;;;2.37;;
4355;SDS011;64374;51.482;7.408;2023-04-03T03:19:11;2.90;;;1.87;;
4355;SDS011;64374;51.482;7.408;2023-04-03T03:21:39;5.20;;;1.73;;
4355;SDS011;64374;51.482;7.408;2023-04-03T03:24:08;4.57;;;1.80;;
4355;SDS011;64374;51.482;7.408;2023-04-03T03:26:36;4.40;;;1.83;;
4355;SDS011;64374;51.482;7.408;2023-04-03T03:29:06;2.30;;;1.77;;
4355;SDS011;64374;51.482;7.408;2023-04-03T03:31:34;6.73;;;1.83;;
4355;SDS011;64374;51.482;7.408;2023-04-03T03:34:03;11.43;;;1.60;;
4355;SDS011;64374;51.482;7.408;2023-04-03T03:36:31;4.93;;;2.23;;
4355;SDS011;64374;51.482;7.408;2023-04-03T03:38:59;5.80;;;1.90;;
4355;SDS011;64374;51.482;7.408;2023-04-03T03:41:28;8.17;;;1.77;;
4355;SDS011;64374;51.482;7.408;2023-04-03T03:43:56;4.30;;;1.87;;
4355;SDS011;64374;51.482;7.408;2023-04-03T03:46:29;2.67;;;1.80;;
4355;SDS011;64374;51.482;7.408;2023-04-03T03:48:57;6.70;;;2.10;;
4355;SDS011;64374;51.482;7.408;2023-04-03T03:51:25;7.30;;;2.47;;
4355;SDS011;64374;51.482;7.408;2023-04-03T03:53:55;3.60;;;2.00;;
4355;SDS011;64374;51.482;7.408;2023-04-03T03:56:23;5.23;;;2.10;;
4355;SDS011;64374;51.482;7.408;2023-04-03T03:58:52;3.47;;;1.60;;
4355;SDS011;64374;51.482;7.408;2023-04-03T04:01:22;5.70;;;2.10;;
4355;SDS011;64374;51.482;7.408;2023-04-03T04:03:52;8.80;;;2.23;;
4355;SDS011;64374;51.482;7.408;2023-04-03T04:06:27;4.83;;;1.53;;
4355;SDS011;64374;51.482;7.408;2023-04-03T04:09:00;7.10;;;2.27;;
4355;SDS011;64374;51.482;7.408;2023-04-03T04:11:29;2.70;;;1.53;;
4355;SDS011;64374;51.482;7.408;2023-04-03T04:14:01;6.17;;;2.27;;
4355;SDS011;64374;51.482;7.408;2023-04-03T04:16:30;1.83;;;1.47;;
4355;SDS011;64374;51.482;7.408;2023-04-03T04:19:05;3.30;;;1.53;;
4355;SDS011;64374;51.482;7.408;2023-04-03T04:21:36;2.53;;;1.73;;
4355;SDS011;64374;51.482;7.408;2023-04-03T04:24:05;7.13;;;2.53;;
4355;SDS011;64374;51.482;7.408;2023-04-03T04:26:36;6.43;;;1.83;;
4355;SDS011;64374;51.482;7.408;2023-04-03T04:29:09;3.60;;;1.70;;
4355;SDS011;64374;51.482;7.408;2023-04-03T04:31:38;3.37;;;1.57;;
4355;SDS011;64374;51.482;7.408;2023-04-03T04:34:08;2.80;;;1.50;;
4355;SDS011;64374;51.482;7.408;2023-04-03T04:36:37;4.33;;;1.83;;
4355;SDS011;64374;51.482;7.408;2023-04-03T04:39:06;7.70;;;1.87;;
4355;SDS011;64374;51.482;7.408;2023-04-03T04:41:34;2.80;;;1.60;;
4355;SDS011;64374;51.482;7.408;2023-04-03T04:44:04;3.80;;;2.10;;
4355;SDS011;64374;51.482;7.408;2023-04-03T04:46:34;5.00;;;2.30;;
4355;SDS011;64374;51.482;7.408;2023-04-03T04:49:04;3.77;;;1.60;;
4355;SDS011;64374;51.482;7.408;2023-04-03T04:51:34;6.80;;;1.70;;
4355;SDS011;64374;51.482;7.408;2023-04-03T04:54:19;2.97;;;1.67;;
4355;SDS011;64374;51.482;7.408;2023-04-03T04:56:48;6.53;;;2.17;;
4355;SDS011;64374;51.482;7.408;2023-04-03T04:59:17;9.47;;;2.43;;
4355;SDS011;64374;51.482;7.408;2023-04-03T05:01:48;6.70;;;1.90;;
4355;SDS011;64374;51.482;7.408;2023-04-03T05:04:16;4.63;;;2.23;;
4355;SDS011;64374;51.482;7.408;2023-04-03T05:06:51;4.83;;;2.13;;
4355;SDS011;64374;51.482;7.408;2023-04-03T05:09:23;4.60;;;1.80;;
4355;SDS011;64374;51.482;7.408;2023-04-03T05:11:52;9.00;;;2.37;;
4355;SDS011;64374;51.482;7.408;2023-04-03T05:14:25;6.17;;;2.37;;
4355;SDS011;64374;51.482;7.408;2023-04-03T05:16:56;5.97;;;3.00;;
4355;SDS011;64374;51.482;7.408;2023-04-03T05:19:27;7.50;;;2.60;;
4355;SDS011;64374;51.482;7.408;2023-04-03T05:22:02;4.00;;;1.77;;
4355;SDS011;64374;51.482;7.408;2023-04-03T05:24:30;4.53;;;2.00;;
4355;SDS011;64374;51.482;7.408;2023-04-03T05:26:59;4.13;;;2.00;;
4355;SDS011;64374;51.482;7.408;2023-04-03T05:29:28;4.00;;;1.37;;
4355;SDS011;64374;51.482;7.408;2023-04-03T05:31:58;4.10;;;2.03;;
4355;SDS011;64374;51.482;7.408;2023-04-03T05:34:27;4.70;;;2.13;;
4355;SDS011;64374;51.482;7.408;2023-04-03T05:36:56;3.80;;;2.30;;
4355;SDS011;64374;51.482;7.408;2023-04-03T05:39:28;5.87;;;2.57;;
4355;SDS011;64374;51.482;7.408;2023-04-03T05:42:00;2.00;;;1.77;;
4355;SDS011;64374;51.482;7.408;2023-04-03T05:44:29;5.70;;;1.80;;
4355;SDS011;64374;51.482;7.408;2023-04-03T05:46:57;5.83;;;2.20;;
4355;SDS011;64374;51.482;7.408;2023-04-03T05:49:26;6.10;;;2.30;;
4355;SDS011;64374;51.482;7.408;2023-04-03T05:51:55;4.20;;;1.77;;
4355;SDS011;64374;51.482;7.408;2023-04-03T05:54:29;4.80;;;2.20;;
4355;SDS011;64374;51.482;7.408;2023-04-03T05:57:08;5.07;;;2.23;;
4355;SDS011;64374;51.482;7.408;2023-04-03T05:59:36;3.53;;;1.97;;
4355;SDS011;64374;51.482;7.408;2023-04-03T06:02:04;5.67;;;2.00;;
4355;SDS011;64374;51.482;7.408;2023-04-03T06:04:32;6.43;;;2.10;;
4355;SDS011;64374;51.482;7.408;2023-04-03T06:07:01;6.70;;;2.40;;
4355;SDS011;64374;51.482;7.408;2023-04-03T06:09:30;6.67;;;2.30;;
4355;SDS011;64374;51.482;7.408;2023-04-03T06:11:59;7.63;;;2.70;;
4355;SDS011;64374;51.482;7.408;2023-04-03T06:14:29;7.33;;;2.03;;
4355;SDS011;64374;51.482;7.408;2023-04-03T06:16:58;4.83;;;2.13;;
4355;SDS011;64374;51.482;7.408;2023-04-03T06:19:27;6.20;;;2.33;;
4355;SDS011;64374;51.482;7.408;2023-04-03T06:21:56;4.03;;;2.30;;
4355;SDS011;64374;51.482;7.408;2023-04-03T06:24:24;4.63;;;2.57;;
4355;SDS011;64374;51.482;7.408;2023-04-03T06:26:54;4.50;;;2.40;;
4355;SDS011;64374;51.482;7.408;2023-04-03T06:29:23;7.00;;;2.67;;
4355;SDS011;64374;51.482;7.408;2023-04-03T06:31:52;10.60;;;2.40;;
4355;SDS011;64374;51.482;7.408;2023-04-03T06:34:20;5.70;;;2.70;;
4355;SDS011;64374;51.482;7.408;2023-04-03T06:36:49;5.73;;;2.70;;
4355;SDS011;64374;51.482;7.408;2023-04-03T06:39:18;12.27;;;2.60;;
4355;SDS011;64374;51.482;7.408;2023-04-03T06:41:48;13.17;;;2.37;;
4355;SDS011;64374;51.482;7.408;2023-04-03T06:44:27;6.33;;;1.90;;
4355;SDS011;64374;51.482;7.408;2023-04-03T06:46:56;7.43;;;3.07;;
4355;SDS011;64374;51.482;7.408;2023-04-03T06:49:25;7.77;;;2.70;;
4355;SDS011;64374;51.482;7.408;2023-04-03T06:51:54;3.57;;;2.03;;
4355;SDS011;64374;51.482;7.408;2023-04-03T06:54:22;19.57;;;3.33;;
4355;SDS011;64374;51.482;7.408;2023-04-03T06:56:52;10.00;;;2.67;;
4355;SDS011;64374;51.482;7.408;2023-04-03T06:59:20;11.77;;;2.80;;
4355;SDS011;64374;51.482;7.408;2023-04-03T07:01:50;10.33;;;2.00;;
4355;SDS011;64374;51.482;7.408;2023-04-03T07:04:19;9.30;;;2.23;;
4355;SDS011;64374;51.482;7.408;2023-04-03T07:06:47;7.90;;;2.53;;
4355;SDS011;64374;51.482;7.408;2023-04-03T07:09:18;8.93;;;1.90;;
4355;SDS011;64374;51.482;7.408;2023-04-03T07:11:48;13.53;;;2.50;;
4355;SDS011;64374;51.482;7.408;2023-04-03T07:14:16;8.23;;;2.70;;
4355;SDS011;64374;51.482;7.408;2023-04-03T07:16:49;17.10;;;3.10;;
4355;SDS011;64374;51.482;7.408;2023-04-03T07:19:18;12.50;;;3.10;;
4355;SDS011;64374;51.482;7.408;2023-04-03T07:21:46;6.13;;;2.10;;
4355;SDS011;64374;51.482;7.408;2023-04-03T07:24:15;9.13;;;2.30;;
4355;SDS011;64374;51.482;7.408;2023-04-03T07:26:43;7.30;;;2.33;;
4355;SDS011;64374;51.482;7.408;2023-04-03T07:29:11;16.33;;;2.40;;
4355;SDS011;64374;51.482;7.408;2023-04-03T07:31:41;5.33;;;2.47;;
4355;SDS011;64374;51.482;7.408;2023-04-03T07:34:12;5.73;;;1.93;;
4355;SDS011;64374;51.482;7.408;2023-04-03T07:36:41;6.20;;;1.43;;
4355;SDS011;64374;51.482;7.408;2023-04-03T07:39:10;4.43;;;2.00;;
4355;SDS011;64374;51.482;7.408;2023-04-03T07:41:38;4.93;;;1.73;;
4355;SDS011;64374;51.482;7.408;2023-04-03T07:44:06;7.80;;;2.07;;
4355;SDS011;64374;51.482;7.408;2023-04-03T07:46:36;5.47;;;1.97;;
4355;SDS011;64374;51.482;7.408;2023-04-03T07:49:05;7.87;;;2.20;;
4355;SDS011;64374;51.482;7.408;2023-04-03T07:51:34;5.80;;;1.50;;
4355;SDS011;64374;51.482;7.408;2023-04-03T07:54:03;3.93;;;1.77;;
4355;SDS011;64374;51.482;7.408;2023-04-03T07:56:31;5.93;;;2.20;;
4355;SDS011;64374;51.482;7.408;2023-04-03T07:59:00;8.10;;;1.97;;
4355;SDS011;64374;51.482;7.408;2023-04-03T08:01:28;5.27;;;1.70;;
4355;SDS011;64374;51.482;7.408;2023-04-03T08:03:58;5.07;;;2.13;;
4355;SDS011;64374;51.482;7.408;2023-04-03T08:06:28;6.63;;;1.70;;
4355;SDS011;64374;51.482;7.408;2023-04-03T08:09:13;3.43;;;1.57;;
4355;SDS011;64374;51.482;7.408;2023-04-03T08:11:42;7.40;;;1.73;;
4355;SDS011;64374;51.482;7.408;2023-04-03T08:14:10;4.83;;;1.63;;
4355;SDS011;64374;51.482;7.408;2023-04-03T08:16:44;5.90;;;1.67;;
4355;SDS011;64374;51.482;7.408;2023-04-03T08:19:13;4.10;;;2.43;;
4355;SDS011;64374;51.482;7.408;2023-04-03T08:21:53;4.20;;;1.90;;
4355;SDS011;64374;51.482;7.408;2023-04-03T08:24:25;4.47;;;2.13;;
4355;SDS011;64374;51.482;7.408;2023-04-03T08:26:54;8.63;;;1.97;;
4355;SDS011;64374;51.482;7.408;2023-04-03T08:29:23;2.90;;;1.43;;
4355;SDS011;64374;51.482;7.408;2023-04-03T08:31:51;4.97;;;1.83;;
4355;SDS011;64374;51.482;7.408;2023-04-03T08:34:20;3.20;;;2.13;;
4355;SDS011;64374;51.482;7.408;2023-04-03T08:36:48;4.43;;;1.87;;
4355;SDS011;64374;51.482;7.408;2023-04-03T08:39:17;10.53;;;2.17;;
4355;SDS011;64374;51.482;7.408;2023-04-03T08:41:46;3.17;;;1.17;;
4355;SDS011;64374;51.482;7.408;2023-04-03T08:44:17;4.27;;;1.40;;
4355;SDS011;64374;51.482;7.408;2023-04-03T08:46:56;4.70;;;1.90;;
4355;SDS011;64374;51.482;7.408;2023-04-03T08:49:39;6.87;;;1.40;;
4355;SDS011;64374;51.482;7.408;2023-04-03T08:52:15;1.97;;;1.50;;
4355;SDS011;64374;51.482;7.408;2023-04-03T08:54:48;5.20;;;1.93;;
4355;SDS011;64374;51.482;7.408;2023-04-03T08:57:23;3.97;;;1.70;;
4355;SDS011;64374;51.482;7.408;2023-04-03T08:59:57;7.20;;;1.87;;
4355;SDS011;64374;51.482;7.408;2023-04-03T09:02:28;3.53;;;1.80;;
4355;SDS011;64374;51.482;7.408;2023-04-03T09:05:01;6.07;;;1.40;;
4355;SDS011;64374;51.482;7.408;2023-04-03T09:07:32;3.47;;;1.50;;
4355;SDS011;64374;51.482;7.408;2023-04-03T09:10:05;2.90;;;1.53;;
4355;SDS011;64374;51.482;7.408;2023-04-03T09:12:37;4.30;;;1.87;;
4355;SDS011;64374;51.482;7.408;2023-04-03T09:15:10;4.27;;;1.60;;
4355;SDS011;64374;51.482;7.408;2023-04-03T09:17:57;8.37;;;1.83;;
4355;SDS011;64374;51.482;7.408;2023-04-03T09:20:33;5.03;;;1.50;;
4355;SDS011;64374;51.482;7.408;2023-04-03T09:23:13;6.70;;;2.10;;
4355;SDS011;64374;51.482;7.408;2023-04-03T09:25:47;2.00;;;1.10;;
4355;SDS011;64374;51.482;7.408;2023-04-03T09:28:19;2.90;;;1.57;;
4355;SDS011;64374;51.482;7.408;2023-04-03T09:30:47;9.03;;;2.40;;
4355;SDS011;64374;51.482;7.408;2023-04-03T09:33:16;11.30;;;2.07;;
4355;SDS011;64374;51.482;7.408;2023-04-03T09:35:45;6.73;;;1.80;;
4355;SDS011;64374;51.482;7.408;2023-04-03T09:38:16;8.80;;;2.53;;
4355;SDS011;64374;51.482;7.408;2023-04-03T09:40:47;2.70;;;1.80;;
4355;SDS011;64374;51.482;7.408;2023-04-03T09:43:23;4.73;;;1.87;;
4355;SDS011;64374;51.482;7.408;2023-04-03T09:45:53;6.17;;;1.50;;
4355;SDS011;64374;51.482;7.408;2023-04-03T09:48:23;3.50;;;1.50;;
4355;SDS011;64374;51.482;7.408;2023-04-03T09:50:54;4.63;;;1.53;;
4355;SDS011;64374;51.482;7.408;2023-04-03T09:53:34;8.33;;;2.17;;
4355;SDS011;64374;51.482;7.408;2023-04-03T09:56:19;5.33;;;1.97;;
4355;SDS011;64374;51.482;7.408;2023-04-03T09:58:52;2.70;;;1.67;;
4355;SDS011;64374;51.482;7.408;2023-04-03T10:01:43;3.93;;;1.70;;
4355;SDS011;64374;51.482;7.408;2023-04-03T10:04:27;3.37;;;1.47;;
4355;SDS011;64374;51.482;7.408;2023-04-03T10:09:59;3.40;;;1.67;;
4355;SDS011;64374;51.482;7.408;2023-04-03T10:12:31;3.27;;;1.60;;
4355;SDS011;64374;51.482;7.408;2023-04-03T10:15:00;9.73;;;2.00;;
4355;SDS011;64374;51.482;7.408;2023-04-03T10:17:32;9.60;;;1.70;;
4355;SDS011;64374;51.482;7.408;2023-04-03T10:20:16;2.07;;;1.77;;
4355;SDS011;64374;51.482;7.408;2023-04-03T10:23:00;8.43;;;1.60;;
4355;SDS011;64374;51.482;7.408;2023-04-03T10:25:40;17.57;;;2.33;;
4355;SDS011;64374;51.482;7.408;2023-04-03T10:28:12;10.17;;;2.53;;
4355;SDS011;64374;51.482;7.408;2023-04-03T10:30:50;7.87;;;2.03;;
4355;SDS011;64374;51.482;7.408;2023-04-03T10:33:29;4.67;;;1.40;;
4355;SDS011;64374;51.482;7.408;2023-04-03T10:36:08;4.57;;;1.40;;
4355;SDS011;64374;51.482;7.408;2023-04-03T10:38:46;2.83;;;1.60;;
4355;SDS011;64374;51.482;7.408;2023-04-03T10:41:23;7.20;;;1.50;;
4355;SDS011;64374;51.482;7.408;2023-04-03T10:44:04;6.30;;;2.17;;
4355;SDS011;64374;51.482;7.408;2023-04-03T10:46:46;5.53;;;1.67;;
4355;SDS011;64374;51.482;7.408;2023-04-03T10:49:20;5.70;;;1.40;;
4355;SDS011;64374;51.482;7.408;2023-04-03T10:51:57;2.83;;;1.50;;
4355;SDS011;64374;51.482;7.408;2023-04-03T10:54:34;5.90;;;1.20;;
4355;SDS011;64374;51.482;7.408;2023-04-03T10:57:08;4.37;;;1.50;;
4355;SDS011;64374;51.482;7.408;2023-04-03T10:59:42;5.40;;;1.50;;
4355;SDS011;64374;51.482;7.408;2023-04-03T11:02:16;4.87;;;1.33;;
4355;SDS011;64374;51.482;7.408;2023-04-03T11:04:53;10.63;;;2.10;;
4355;SDS011;64374;51.482;7.408;2023-04-03T11:07:26;2.80;;;1.50;;
4355;SDS011;64374;51.482;7.408;2023-04-03T11:09:59;2.00;;;1.10;;
4355;SDS011;64374;51.482;7.408;2023-04-03T11:12:33;1.57;;;1.33;;
4355;SDS011;64374;51.482;7.408;2023-04-03T11:15:11;3.80;;;1.30;;
4355;SDS011;64374;51.482;7.408;2023-04-03T11:17:43;3.93;;;1.00;;
4355;SDS011;64374;51.482;7.408;2023-04-03T11:20:18;6.07;;;1.10;;
4355;SDS011;64374;51.482;7.408;2023-04-03T11:22:57;1.63;;;1.30;;
4355;SDS011;64374;51.482;7.408;2023-04-03T11:25:30;2.87;;;0.90;;
4355;SDS011;64374;51.482;7.408;2023-04-03T11:28:02;2.67;;;1.20;;
4355;SDS011;64374;51.482;7.408;2023-04-03T11:30:33;0.77;;;0.77;;
4355;SDS011;64374;51.482;7.408;2023-04-03T11:36:12;2.53;;;1.60;;
4355;SDS011;64374;51.482;7.408;2023-04-03T11:38:59;4.17;;;1.23;;
4355;SDS011;64374;51.482;7.408;2023-04-03T11:41:36;3.80;;;1.10;;
4355;SDS011;64374;51.482;7.408;2023-04-03T11:44:27;1.77;;;1.10;;
4355;SDS011;64374;51.482;7.408;2023-04-03T11:47:01;2.37;;;1.43;;
4355;SDS011;64374;51.482;7.408;2023-04-03T11:58:29;2.90;;;1.13;;
4355;SDS011;64374;51.482;7.408;2023-04-03T12:01:03;4.13;;;1.30;;
4355;SDS011;64374;51.482;7.408;2023-04-03T12:06:42;4.63;;;1.93;;
4355;SDS011;64374;51.482;7.408;2023-04-03T12:09:24;5.00;;;1.63;;
4355;SDS011;64374;51.482;7.408;2023-04-03T12:11:55;1.97;;;1.03;;
4355;SDS011;64374;51.482;7.408;2023-04-03T12:14:26;5.27;;;2.03;;
4355;SDS011;64374;51.482;7.408;2023-04-03T12:16:56;1.87;;;1.10;;
4355;SDS011;64374;51.482;7.408;2023-04-03T12:19:34;1.60;;;1.13;;
4355;SDS011;64374;51.482;7.408;2023-04-03T12:22:13;2.30;;;1.40;;
4355;SDS011;64374;51.482;7.408;2023-04-03T12:24:42;2.87;;;1.20;;
4355;SDS011;64374;51.482;7.408;2023-04-03T12:27:16;6.30;;;1.87;;
4355;SDS011;64374;51.482;7.408;2023-04-03T12:29:54;1.60;;;1.40;;
4355;SDS011;64374;51.482;7.408;2023-04-03T12:32:34;1.47;;;1.20;;
4355;SDS011;64374;51.482;7.408;2023-04-03T12:35:34;2.70;;;1.43;;
4355;SDS011;64374;51.482;7.408;2023-04-03T12:38:23;1.47;;;0.90;;
4355;SDS011;64374;51.482;7.408;2023-04-03T12:41:11;10.53;;;2.33;;
4355;SDS011;64374;51.482;7.408;2023-04-03T12:43:53;4.73;;;1.30;;
4355;SDS011;64374;51.482;7.408;2023-04-03T12:46:42;5.83;;;1.00;;
4355;SDS011;64374;51.482;7.408;2023-04-03T12:49:22;2.73;;;1.03;;
4355;SDS011;64374;51.482;7.408;2023-04-03T12:52:05;3.07;;;0.90;;
4355;SDS011;64374;51.482;7.408;2023-04-03T12:54:44;1.80;;;1.30;;
4355;SDS011;64374;51.482;7.408;2023-04-03T12:57:16;2.03;;;1.00;;
4355;SDS011;64374;51.482;7.408;2023-04-03T12:59:46;5.97;;;1.57;;
4355;SDS011;64374;51.482;7.408;2023-04-03T13:02:23;3.13;;;1.40;;
4355;SDS011;64374;51.482;7.408;2023-04-03T13:04:56;1.70;;;1.13;;
4355;SDS011;64374;51.482;7.408;2023-04-03T13:07:28;7.33;;;1.30;;
4355;SDS011;64374;51.482;7.408;2023-04-03T13:10:02;1.67;;;1.00;;
4355;SDS011;64374;51.482;7.408;2023-04-03T13:12:47;2.10;;;1.53;;
4355;SDS011;64374;51.482;7.408;2023-04-03T13:15:18;3.60;;;1.50;;
4355;SDS011;64374;51.482;7.408;2023-04-03T13:17:50;1.73;;;1.07;;
4355;SDS011;64374;51.482;7.408;2023-04-03T13:20:22;1.63;;;0.90;;
4355;SDS011;64374;51.482;7.408;2023-04-03T13:22:54;3.23;;;1.50;;
4355;SDS011;64374;51.482;7.408;2023-04-03T13:25:27;3.13;;;1.10;;
4355;SDS011;64374;51.482;7.408;2023-04-03T13:27:58;1.97;;;1.10;;
4355;SDS011;64374;51.482;7.408;2023-04-03T13:30:40;3.03;;;1.10;;
4355;SDS011;64374;51.482;7.408;2023-04-03T13:33:25;2.10;;;1.20;;
4355;SDS011;64374;51.482;7.408;2023-04-03T13:35:55;3.40;;;1.17;;
4355;SDS011;64374;51.482;7.408;2023-04-03T13:38:28;2.60;;;1.13;;
4355;SDS011;64374;51.482;7.408;2023-04-03T13:41:00;3.40;;;1.30;;
4355;SDS011;64374;51.482;7.408;2023-04-03T13:43:32;5.63;;;1.13;;
4355;SDS011;64374;51.482;7.408;2023-04-03T13:46:04;1.70;;;1.10;;
4355;SDS011;64374;51.482;7.408;2023-04-03T13:48:51;1.40;;;1.27;;
4355;SDS011;64374;51.482;7.408;2023-04-03T13:51:23;2.57;;;1.20;;
4355;SDS011;64374;51.482;7.408;2023-04-03T13:53:54;2.47;;;1.17;;
4355;SDS011;64374;51.482;7.408;2023-04-03T13:56:26;1.97;;;1.20;;
4355;SDS011;64374;51.482;7.408;2023-04-03T13:59:00;3.00;;;1.60;;
4355;SDS011;64374;51.482;7.408;2023-04-03T14:01:35;1.93;;;1.20;;
4355;SDS011;64374;51.482;7.408;2023-04-03T14:04:12;4.33;;;1.57;;
4355;SDS011;64374;51.482;7.408;2023-04-03T14:06:43;4.57;;;1.30;;
4355;SDS011;64374;51.482;7.408;2023-04-03T14:09:12;2.10;;;1.27;;
4355;SDS011;64374;51.482;7.408;2023-04-03T14:11:42;2.77;;;1.10;;
4355;SDS011;64374;51.482;7.408;2023-04-03T14:14:13;1.23;;;1.13;;
4355;SDS011;64374;51.482;7.408;2023-04-03T14:16:44;2.20;;;1.20;;
4355;SDS011;64374;51.482;7.408;2023-04-03T14:19:18;5.17;;;1.60;;
4355;SDS011;64374;51.482;7.408;2023-04-03T14:21:49;3.23;;;1.40;;
4355;SDS011;64374;51.482;7.408;2023-04-03T14:24:19;1.93;;;1.40;;
4355;SDS011;64374;51.482;7.408;2023-04-03T14:26:48;4.30;;;1.20;;
4355;SDS011;64374;51.482;7.408;2023-04-03T14:29:18;3.17;;;1.10;;
4355;SDS011;64374;51.482;7.408;2023-04-03T14:31:50;4.63;;;1.37;;
4355;SDS011;64374;51.482;7.408;2023-04-03T14:34:37;3.07;;;1.40;;
4355;SDS011;64374;51.482;7.408;2023-04-03T14:37:09;2.70;;;1.33;;
4355;SDS011;64374;51.482;7.408;2023-04-03T14:39:39;2.07;;;1.30;;
4355;SDS011;64374;51.482;7.408;2023-04-03T14:42:11;4.23;;;1.47;;
4355;SDS011;64374;51.482;7.408;2023-04-03T14:44:41;2.10;;;1.30;;
4355;SDS011;64374;51.482;7.408;2023-04-03T14:47:09;3.93;;;1.30;;
4355;SDS011;64374;51.482;7.408;2023-04-03T14:49:57;4.77;;;1.20;;
4355;SDS011;64374;51.482;7.408;2023-04-03T14:52:29;3.10;;;1.10;;
4355;SDS011;64374;51.482;7.408;2023-04-03T14:54:59;1.87;;;1.30;;
4355;SDS011;64374;51.482;7.408;2023-04-03T14:57:28;2.53;;;1.37;;
4355;SDS011;64374;51.482;7.408;2023-04-03T14:59:58;1.53;;;1.27;;
4355;SDS011;64374;51.482;7.408;2023-04-03T15:02:29;3.33;;;1.30;;
4355;SDS011;64374;51.482;7.408;2023-04-03T15:05:01;3.17;;;1.20;;
4355;SDS011;64374;51.482;7.408;2023-04-03T15:07:32;2.30;;;1.10;;
4355;SDS011;64374;51.482;7.408;2023-04-03T15:10:05;2.73;;;1.30;;
4355;SDS011;64374;51.482;7.408;2023-04-03T15:12:43;2.77;;;1.50;;
4355;SDS011;64374;51.482;7.408;2023-04-03T15:15:13;2.70;;;1.20;;
4355;SDS011;64374;51.482;7.408;2023-04-03T15:17:43;4.03;;;1.40;;
4355;SDS011;64374;51.482;7.408;2023-04-03T15:20:16;2.27;;;1.83;;
4355;SDS011;64374;51.482;7.408;2023-04-03T15:22:47;3.13;;;1.60;;
4355;SDS011;64374;51.482;7.408;2023-04-03T15:25:16;2.30;;;1.20;;
4355;SDS011;64374;51.482;7.408;2023-04-03T15:27:44;2.40;;;1.57;;
4355;SDS011;64374;51.482;7.408;2023-04-03T15:30:14;6.70;;;1.80;;
4355;SDS011;64374;51.482;7.408;2023-04-03T15:32:43;7.00;;;1.97;;
4355;SDS011;64374;51.482;7.408;2023-04-03T15:35:12;5.07;;;2.00;;
4355;SDS011;64374;51.482;7.408;2023-04-03T15:37:42;2.37;;;1.27;;
4355;SDS011;64374;51.482;7.408;2023-04-03T15:40:11;5.30;;;1.63;;
4355;SDS011;64374;51.482;7.408;2023-04-03T15:42:39;2.30;;;1.30;;
4355;SDS011;64374;51.482;7.408;2023-04-03T15:45:08;3.53;;;1.50;;
4355;SDS011;64374;51.482;7.408;2023-04-03T15:47:37;2.40;;;1.50;;